This is the latest recevied weather packets stored in our database for station/object ENRA. If no packets are shown the sender has not sent any weather packets the latest 10 day(s).
| Time | Temp. | Humidity | Pressure | Rain* | Wind** | Luminosity | Snow |
|---|---|---|---|---|---|---|---|
| 1777840386 | 5° C | 56% | 1003 hPa | - | - | - | - |
| 1777833189 | 5° C | 56% | 1004 hPa | - | - | - | - |
| 1777825989 | 5° C | 52% | 1005 hPa | - | - | - | - |
| 1777820588 | 5.56° C | 52% | 1006 hPa | - | - | - | - |
| 1777802588 | 3.89° C | 60% | 1008 hPa | - | - | - | - |
| 1777800787 | 3.89° C | 64% | 1008 hPa | - | - | - | - |
| 1777798988 | 2.78° C | 69% | 1008 hPa | - | - | - | - |
| 1777797186 | 2.78° C | 74% | 1008 hPa | - | - | - | - |
| 1777795388 | 1.67° C | 74% | 1008 hPa | - | - | - | - |
| 1777793587 | 0.56° C | 86% | 1008 hPa | - | - | - | - |
| 1777791788 | 0.56° C | 86% | 1008 hPa | - | - | - | - |
| 1777789987 | 0.56° C | 80% | 1008 hPa | - | - | - | - |
| 1777788187 | 0.56° C | 80% | 1008 hPa | - | - | - | - |
| 1777786386 | 0.56° C | 80% | 1008 hPa | - | - | - | - |
| 1777784587 | 0° C | 86% | 1008 hPa | - | - | - | - |
| 1777782789 | 0° C | 86% | 1008 hPa | - | - | - | - |
| 1777780986 | 0° C | 86% | 1008 hPa | - | - | - | - |
| 1777779187 | 0° C | 92% | 1008 hPa | - | - | - | - |
| 1777777387 | 0° C | 86% | 1008 hPa | - | - | - | - |
| 1777775586 | 0° C | 86% | 1008 hPa | - | - | - | - |
| 1777773787 | 0° C | 86% | 1007 hPa | - | - | - | - |
| 1777768389 | 0.56° C | 86% | 1007 hPa | - | - | - | - |
| 1777752187 | 1.67° C | 86% | 1006 hPa | - | - | - | - |
| 1777735988 | 3.89° C | 75% | 1006 hPa | - | - | - | - |
| 1777732388 | 2.78° C | 86% | 1006 hPa | - | - | - | - |
* Rain since midnight (hover to see other rain measurements)
** Current wind speed in m/s (hover to see current wind gust speed)